sensor_id;sensor_type;location;lat;lon;timestamp;pressure;altitude;pressure_sealevel;temperature;humidity
29825;BME280;16713;52.916;12.834;2022-08-18T00:04:29;100516.88;;;21.75;71.88
29825;BME280;16713;52.916;12.834;2022-08-18T00:07:02;100514.72;;;21.67;71.94
29825;BME280;16713;52.916;12.834;2022-08-18T00:09:28;100513.41;;;21.71;72.07
29825;BME280;16713;52.916;12.834;2022-08-18T00:11:59;100515.84;;;21.69;72.03
29825;BME280;16713;52.916;12.834;2022-08-18T00:14:26;100517.69;;;21.76;72.22
29825;BME280;16713;52.916;12.834;2022-08-18T00:16:53;100513.31;;;21.75;71.75
29825;BME280;16713;52.916;12.834;2022-08-18T00:19:20;100511.31;;;21.75;72.03
29825;BME280;16713;52.916;12.834;2022-08-18T00:22:07;100508.50;;;21.75;71.90
29825;BME280;16713;52.916;12.834;2022-08-18T00:24:39;100507.91;;;21.68;72.09
29825;BME280;16713;52.916;12.834;2022-08-18T00:27:14;100513.47;;;21.68;72.53
29825;BME280;16713;52.916;12.834;2022-08-18T00:29:42;100510.34;;;21.66;72.12
29825;BME280;16713;52.916;12.834;2022-08-18T00:32:12;100519.16;;;21.64;72.81
29825;BME280;16713;52.916;12.834;2022-08-18T00:34:39;100510.59;;;21.55;72.47
29825;BME280;16713;52.916;12.834;2022-08-18T00:37:05;100519.38;;;21.53;73.00
29825;BME280;16713;52.916;12.834;2022-08-18T00:39:32;100513.94;;;21.46;73.29
29825;BME280;16713;52.916;12.834;2022-08-18T00:42:16;100516.88;;;21.39;73.30
29825;BME280;16713;52.916;12.834;2022-08-18T00:44:57;100518.13;;;21.38;73.58
29825;BME280;16713;52.916;12.834;2022-08-18T00:47:24;100515.66;;;21.24;73.58
29825;BME280;16713;52.916;12.834;2022-08-18T00:50:10;100518.59;;;21.17;73.98
29825;BME280;16713;52.916;12.834;2022-08-18T00:52:41;100511.59;;;21.09;74.37
29825;BME280;16713;52.916;12.834;2022-08-18T00:55:07;100509.03;;;20.99;74.51
29825;BME280;16713;52.916;12.834;2022-08-18T00:57:34;100500.50;;;21.06;74.65
29825;BME280;16713;52.916;12.834;2022-08-18T01:00:03;100503.59;;;20.92;76.04
29825;BME280;16713;52.916;12.834;2022-08-18T01:02:39;100500.44;;;20.90;75.62
29825;BME280;16713;52.916;12.834;2022-08-18T01:05:12;100499.50;;;20.96;75.28
29825;BME280;16713;52.916;12.834;2022-08-18T01:07:40;100491.06;;;21.00;74.79
29825;BME280;16713;52.916;12.834;2022-08-18T01:10:15;100498.38;;;20.94;74.67
29825;BME280;16713;52.916;12.834;2022-08-18T01:12:42;100496.00;;;20.73;75.58
29825;BME280;16713;52.916;12.834;2022-08-18T01:15:12;100495.13;;;20.76;75.89
29825;BME280;16713;52.916;12.834;2022-08-18T01:17:59;100486.94;;;20.69;76.81
29825;BME280;16713;52.916;12.834;2022-08-18T01:20:59;100487.63;;;20.73;75.91
29825;BME280;16713;52.916;12.834;2022-08-18T01:23:47;100480.19;;;20.66;76.26
29825;BME280;16713;52.916;12.834;2022-08-18T01:26:14;100481.00;;;20.67;76.88
29825;BME280;16713;52.916;12.834;2022-08-18T01:28:42;100474.34;;;20.61;76.84
29825;BME280;16713;52.916;12.834;2022-08-18T01:31:10;100476.53;;;20.69;77.18
29825;BME280;16713;52.916;12.834;2022-08-18T01:33:39;100464.41;;;20.79;76.83
29825;BME280;16713;52.916;12.834;2022-08-18T01:36:11;100458.88;;;20.76;76.70
29825;BME280;16713;52.916;12.834;2022-08-18T01:38:39;100458.03;;;20.79;77.04
29825;BME280;16713;52.916;12.834;2022-08-18T01:41:06;100449.97;;;20.84;76.23
29825;BME280;16713;52.916;12.834;2022-08-18T01:43:52;100450.47;;;20.99;75.69
29825;BME280;16713;52.916;12.834;2022-08-18T01:46:19;100441.94;;;21.06;75.25
29825;BME280;16713;52.916;12.834;2022-08-18T01:48:46;100435.28;;;21.00;75.10
29825;BME280;16713;52.916;12.834;2022-08-18T01:51:13;100436.97;;;20.97;75.56
29825;BME280;16713;52.916;12.834;2022-08-18T01:53:40;100433.56;;;21.06;74.86
29825;BME280;16713;52.916;12.834;2022-08-18T01:56:07;100432.72;;;21.09;74.72
29825;BME280;16713;52.916;12.834;2022-08-18T01:58:34;100429.94;;;21.09;74.72
29825;BME280;16713;52.916;12.834;2022-08-18T02:01:01;100430.34;;;21.07;74.42
29825;BME280;16713;52.916;12.834;2022-08-18T02:03:33;100433.56;;;21.06;74.35
29825;BME280;16713;52.916;12.834;2022-08-18T02:06:02;100437.94;;;21.07;74.78
29825;BME280;16713;52.916;12.834;2022-08-18T02:08:30;100428.84;;;21.03;74.68
29825;BME280;16713;52.916;12.834;2022-08-18T02:10:58;100427.38;;;20.98;74.98
29825;BME280;16713;52.916;12.834;2022-08-18T02:13:25;100430.59;;;20.97;75.33
29825;BME280;16713;52.916;12.834;2022-08-18T02:15:51;100430.28;;;20.91;75.22
29825;BME280;16713;52.916;12.834;2022-08-18T02:18:18;100434.75;;;20.89;75.81
29825;BME280;16713;52.916;12.834;2022-08-18T02:21:06;100433.22;;;20.84;75.49
29825;BME280;16713;52.916;12.834;2022-08-18T02:23:35;100428.16;;;20.79;75.81
29825;BME280;16713;52.916;12.834;2022-08-18T02:26:03;100428.59;;;20.78;76.11
29825;BME280;16713;52.916;12.834;2022-08-18T02:28:30;100426.97;;;20.61;76.83
29825;BME280;16713;52.916;12.834;2022-08-18T02:30:57;100424.59;;;20.59;76.43
29825;BME280;16713;52.916;12.834;2022-08-18T02:33:23;100424.38;;;20.50;76.84
29825;BME280;16713;52.916;12.834;2022-08-18T02:35:52;100428.72;;;20.51;76.96
29825;BME280;16713;52.916;12.834;2022-08-18T02:38:19;100428.03;;;20.47;77.12
29825;BME280;16713;52.916;12.834;2022-08-18T02:40:46;100428.75;;;20.32;77.97
29825;BME280;16713;52.916;12.834;2022-08-18T02:43:12;100421.44;;;20.18;78.38
29825;BME280;16713;52.916;12.834;2022-08-18T02:45:38;100421.31;;;20.25;78.26
29825;BME280;16713;52.916;12.834;2022-08-18T02:48:05;100423.09;;;20.35;77.64
29825;BME280;16713;52.916;12.834;2022-08-18T02:50:32;100417.50;;;20.15;78.18
29825;BME280;16713;52.916;12.834;2022-08-18T02:53:00;100423.41;;;19.98;78.79
29825;BME280;16713;52.916;12.834;2022-08-18T02:55:27;100416.22;;;19.97;78.93
29825;BME280;16713;52.916;12.834;2022-08-18T02:57:54;100416.28;;;19.93;78.77
29825;BME280;16713;52.916;12.834;2022-08-18T03:00:20;100416.53;;;20.02;79.37
29825;BME280;16713;52.916;12.834;2022-08-18T03:02:48;100421.81;;;19.97;79.45
29825;BME280;16713;52.916;12.834;2022-08-18T03:05:16;100411.25;;;20.08;78.13
29825;BME280;16713;52.916;12.834;2022-08-18T03:07:43;100401.72;;;19.86;78.84
29825;BME280;16713;52.916;12.834;2022-08-18T03:10:09;100405.69;;;19.88;78.81
29825;BME280;16713;52.916;12.834;2022-08-18T03:12:56;100409.72;;;19.84;78.97
29825;BME280;16713;52.916;12.834;2022-08-18T03:15:22;100407.56;;;19.72;79.71
29825;BME280;16713;52.916;12.834;2022-08-18T03:17:51;100411.47;;;19.74;79.64
29825;BME280;16713;52.916;12.834;2022-08-18T03:20:18;100416.19;;;19.77;79.14
29825;BME280;16713;52.916;12.834;2022-08-18T03:22:55;100413.03;;;19.98;78.60
29825;BME280;16713;52.916;12.834;2022-08-18T03:25:22;100414.94;;;19.82;79.22
29825;BME280;16713;52.916;12.834;2022-08-18T03:27:48;100414.19;;;20.01;78.15
29825;BME280;16713;52.916;12.834;2022-08-18T03:30:15;100421.53;;;20.11;77.68
29825;BME280;16713;52.916;12.834;2022-08-18T03:32:41;100424.59;;;20.20;77.75
29825;BME280;16713;52.916;12.834;2022-08-18T03:35:11;100419.28;;;20.26;77.30
29825;BME280;16713;52.916;12.834;2022-08-18T03:37:39;100417.84;;;20.17;77.74
29825;BME280;16713;52.916;12.834;2022-08-18T03:40:06;100421.44;;;20.18;77.47
29825;BME280;16713;52.916;12.834;2022-08-18T03:42:32;100419.59;;;20.31;77.31
29825;BME280;16713;52.916;12.834;2022-08-18T03:44:58;100426.41;;;20.30;76.33
29825;BME280;16713;52.916;12.834;2022-08-18T03:47:37;100436.31;;;20.31;77.02
29825;BME280;16713;52.916;12.834;2022-08-18T03:50:05;100434.31;;;20.32;77.16
29825;BME280;16713;52.916;12.834;2022-08-18T03:52:31;100435.88;;;20.33;76.91
29825;BME280;16713;52.916;12.834;2022-08-18T03:54:58;100431.22;;;20.26;77.09
29825;BME280;16713;52.916;12.834;2022-08-18T03:57:27;100432.78;;;20.27;77.23
29825;BME280;16713;52.916;12.834;2022-08-18T04:00:04;100426.03;;;20.28;76.85
29825;BME280;16713;52.916;12.834;2022-08-18T04:02:31;100424.38;;;20.31;76.99
29825;BME280;16713;52.916;12.834;2022-08-18T04:04:57;100431.16;;;20.30;76.71
29825;BME280;16713;52.916;12.834;2022-08-18T04:07:23;100429.63;;;20.29;76.47
29825;BME280;16713;52.916;12.834;2022-08-18T04:09:49;100427.97;;;20.31;76.44
29825;BME280;16713;52.916;12.834;2022-08-18T04:12:16;100435.53;;;20.31;76.20
29825;BME280;16713;52.916;12.834;2022-08-18T04:14:44;100436.81;;;20.26;76.57
29825;BME280;16713;52.916;12.834;2022-08-18T04:17:13;100439.16;;;20.28;76.37
29825;BME280;16713;52.916;12.834;2022-08-18T04:19:39;100440.50;;;20.19;76.99
29825;BME280;16713;52.916;12.834;2022-08-18T04:22:06;100442.38;;;20.26;76.90
29825;BME280;16713;52.916;12.834;2022-08-18T04:24:32;100451.22;;;20.21;76.59
29825;BME280;16713;52.916;12.834;2022-08-18T04:27:01;100447.34;;;20.15;77.36
29825;BME280;16713;52.916;12.834;2022-08-18T04:29:29;100450.25;;;20.08;77.53
29825;BME280;16713;52.916;12.834;2022-08-18T04:31:59;100461.31;;;20.11;77.18
29825;BME280;16713;52.916;12.834;2022-08-18T04:34:25;100459.44;;;20.05;77.85
29825;BME280;16713;52.916;12.834;2022-08-18T04:36:52;100455.31;;;20.13;77.78
29825;BME280;16713;52.916;12.834;2022-08-18T04:39:19;100466.38;;;20.20;77.12
29825;BME280;16713;52.916;12.834;2022-08-18T04:41:46;100459.31;;;20.12;77.85
29825;BME280;16713;52.916;12.834;2022-08-18T04:44:13;100467.81;;;20.28;77.53
29825;BME280;16713;52.916;12.834;2022-08-18T04:46:43;100467.75;;;20.32;77.57
29825;BME280;16713;52.916;12.834;2022-08-18T04:49:11;100470.34;;;20.19;77.54
29825;BME280;16713;52.916;12.834;2022-08-18T04:51:41;100471.94;;;20.20;78.14
29825;BME280;16713;52.916;12.834;2022-08-18T04:54:28;100469.53;;;20.22;78.29
29825;BME280;16713;52.916;12.834;2022-08-18T04:56:54;100470.06;;;20.37;77.36
29825;BME280;16713;52.916;12.834;2022-08-18T05:01:49;100467.06;;;20.24;78.35
29825;BME280;16713;52.916;12.834;2022-08-18T05:04:16;100479.50;;;19.96;79.88
29825;BME280;16713;52.916;12.834;2022-08-18T05:06:43;100485.59;;;19.88;80.49
29825;BME280;16713;52.916;12.834;2022-08-18T05:09:11;100477.66;;;20.09;79.68
29825;BME280;16713;52.916;12.834;2022-08-18T05:11:41;100481.56;;;20.15;80.04
29825;BME280;16713;52.916;12.834;2022-08-18T05:14:09;100485.44;;;20.22;79.27
29825;BME280;16713;52.916;12.834;2022-08-18T05:16:36;100483.78;;;20.24;79.04
29825;BME280;16713;52.916;12.834;2022-08-18T05:19:14;100490.75;;;20.36;78.83
29825;BME280;16713;52.916;12.834;2022-08-18T05:21:44;100490.09;;;20.28;79.35
29825;BME280;16713;52.916;12.834;2022-08-18T05:24:15;100489.59;;;20.33;79.23
29825;BME280;16713;52.916;12.834;2022-08-18T05:26:42;100490.31;;;20.37;78.47
29825;BME280;16713;52.916;12.834;2022-08-18T05:29:08;100504.25;;;20.37;79.00
29825;BME280;16713;52.916;12.834;2022-08-18T05:31:44;100497.81;;;20.40;79.26
29825;BME280;16713;52.916;12.834;2022-08-18T05:34:11;100501.47;;;20.37;79.24
29825;BME280;16713;52.916;12.834;2022-08-18T05:41:43;100507.72;;;20.45;79.09
29825;BME280;16713;52.916;12.834;2022-08-18T05:44:12;100502.47;;;20.47;78.66
29825;BME280;16713;52.916;12.834;2022-08-18T05:46:45;100503.22;;;20.51;78.87
29825;BME280;16713;52.916;12.834;2022-08-18T05:49:12;100499.69;;;20.47;79.32
29825;BME280;16713;52.916;12.834;2022-08-18T05:51:50;100494.53;;;20.45;79.77
29825;BME280;16713;52.916;12.834;2022-08-18T05:54:18;100489.41;;;20.44;79.34
29825;BME280;16713;52.916;12.834;2022-08-18T05:57:06;100486.69;;;20.40;79.62
29825;BME280;16713;52.916;12.834;2022-08-18T05:59:34;100483.47;;;20.42;80.08
29825;BME280;16713;52.916;12.834;2022-08-18T06:04:29;100485.31;;;20.48;79.71
29825;BME280;16713;52.916;12.834;2022-08-18T06:06:58;100488.31;;;20.38;80.21
29825;BME280;16713;52.916;12.834;2022-08-18T06:09:31;100480.34;;;20.40;79.83
29825;BME280;16713;52.916;12.834;2022-08-18T06:12:12;100476.31;;;20.41;79.65
29825;BME280;16713;52.916;12.834;2022-08-18T06:14:42;100478.69;;;20.42;80.40
29825;BME280;16713;52.916;12.834;2022-08-18T06:17:14;100471.47;;;20.45;80.63
29825;BME280;16713;52.916;12.834;2022-08-18T06:19:51;100465.06;;;20.48;80.69
29825;BME280;16713;52.916;12.834;2022-08-18T06:32:29;100476.91;;;20.52;80.82
29825;BME280;16713;52.916;12.834;2022-08-18T06:40:46;100486.84;;;20.72;79.91
29825;BME280;16713;52.916;12.834;2022-08-18T06:43:12;100484.69;;;20.60;79.65
29825;BME280;16713;52.916;12.834;2022-08-18T06:45:41;100481.50;;;20.19;77.82
29825;BME280;16713;52.916;12.834;2022-08-18T06:50:48;100500.88;;;20.69;80.62
29825;BME280;16713;52.916;12.834;2022-08-18T06:53:15;100503.44;;;20.79;79.53
29825;BME280;16713;52.916;12.834;2022-08-18T06:55:53;100509.16;;;20.92;79.57
29825;BME280;16713;52.916;12.834;2022-08-18T06:58:28;100497.44;;;21.00;80.57
29825;BME280;16713;52.916;12.834;2022-08-18T07:00:58;100498.44;;;21.10;80.75
29825;BME280;16713;52.916;12.834;2022-08-18T07:08:34;100512.69;;;21.31;80.15
29825;BME280;16713;52.916;12.834;2022-08-18T07:13:43;100514.47;;;21.41;79.28
29825;BME280;16713;52.916;12.834;2022-08-18T07:19:15;100513.75;;;21.57;79.36
29825;BME280;16713;52.916;12.834;2022-08-18T07:21:42;100515.56;;;21.64;79.18
29825;BME280;16713;52.916;12.834;2022-08-18T07:24:24;100519.06;;;21.68;78.16
29825;BME280;16713;52.916;12.834;2022-08-18T07:32:26;100517.09;;;21.84;76.76
29825;BME280;16713;52.916;12.834;2022-08-18T07:34:53;100522.91;;;21.90;76.63
29825;BME280;16713;52.916;12.834;2022-08-18T07:37:46;100527.28;;;21.91;75.02
29825;BME280;16713;52.916;12.834;2022-08-18T07:40:45;100534.81;;;21.94;74.94
29825;BME280;16713;52.916;12.834;2022-08-18T07:43:08;100532.59;;;22.01;76.52
29825;BME280;16713;52.916;12.834;2022-08-18T07:45:41;100536.53;;;22.04;76.79
29825;BME280;16713;52.916;12.834;2022-08-18T07:51:04;100541.34;;;22.03;75.06
29825;BME280;16713;52.916;12.834;2022-08-18T07:56:27;100544.22;;;22.16;75.27
29825;BME280;16713;52.916;12.834;2022-08-18T08:01:45;100554.03;;;22.24;73.84
29825;BME280;16713;52.916;12.834;2022-08-18T08:04:36;100548.00;;;22.25;72.43
29825;BME280;16713;52.916;12.834;2022-08-18T08:07:05;100556.66;;;22.31;72.94
29825;BME280;16713;52.916;12.834;2022-08-18T08:12:44;100553.41;;;22.32;75.44
29825;BME280;16713;52.916;12.834;2022-08-18T08:20:30;100564.75;;;22.41;73.06
29825;BME280;16713;52.916;12.834;2022-08-18T08:26:04;100573.56;;;22.24;71.75
29825;BME280;16713;52.916;12.834;2022-08-18T08:28:29;100576.88;;;22.35;70.88
29825;BME280;16713;52.916;12.834;2022-08-18T08:31:09;100572.84;;;22.36;70.38
29825;BME280;16713;52.916;12.834;2022-08-18T08:33:57;100586.41;;;22.53;70.52
29825;BME280;16713;52.916;12.834;2022-08-18T08:36:32;100581.56;;;22.54;70.84
29825;BME280;16713;52.916;12.834;2022-08-18T08:39:04;100579.03;;;22.59;71.56
29825;BME280;16713;52.916;12.834;2022-08-18T08:41:43;100589.59;;;22.68;72.28
29825;BME280;16713;52.916;12.834;2022-08-18T08:44:18;100583.44;;;22.73;71.23
29825;BME280;16713;52.916;12.834;2022-08-18T08:47:04;100584.50;;;22.79;69.89
29825;BME280;16713;52.916;12.834;2022-08-18T08:49:36;100585.91;;;22.87;68.33
29825;BME280;16713;52.916;12.834;2022-08-18T08:52:15;100593.75;;;22.92;69.22
29825;BME280;16713;52.916;12.834;2022-08-18T08:55:31;100594.00;;;22.98;68.88
29825;BME280;16713;52.916;12.834;2022-08-18T08:57:32;100601.84;;;23.03;68.81
29825;BME280;16713;52.916;12.834;2022-08-18T09:00:01;100593.38;;;23.06;69.39
29825;BME280;16713;52.916;12.834;2022-08-18T09:05:24;100603.44;;;23.16;71.29
29825;BME280;16713;52.916;12.834;2022-08-18T09:10:51;100603.34;;;23.20;71.34
29825;BME280;16713;52.916;12.834;2022-08-18T09:13:33;100600.09;;;23.21;71.34
29825;BME280;16713;52.916;12.834;2022-08-18T09:16:18;100590.81;;;23.24;70.85
29825;BME280;16713;52.916;12.834;2022-08-18T09:24:05;100588.47;;;23.23;69.12
29825;BME280;16713;52.916;12.834;2022-08-18T09:26:39;100595.31;;;23.22;68.70
29825;BME280;16713;52.916;12.834;2022-08-18T09:31:38;100578.88;;;23.24;68.81
29825;BME280;16713;52.916;12.834;2022-08-18T09:34:09;100577.03;;;23.05;68.47
29825;BME280;16713;52.916;12.834;2022-08-18T09:36:46;100574.25;;;23.17;68.58
29825;BME280;16713;52.916;12.834;2022-08-18T09:39:43;100582.00;;;23.26;69.46
29825;BME280;16713;52.916;12.834;2022-08-18T09:42:38;100588.53;;;23.35;67.97
29825;BME280;16713;52.916;12.834;2022-08-18T09:54:07;100595.34;;;23.34;68.36
29825;BME280;16713;52.916;12.834;2022-08-18T09:57:35;100585.28;;;23.37;70.44
29825;BME280;16713;52.916;12.834;2022-08-18T09:59:49;100581.47;;;23.43;69.10
29825;BME280;16713;52.916;12.834;2022-08-18T10:07:40;100575.78;;;23.47;68.36
29825;BME280;16713;52.916;12.834;2022-08-18T10:15:44;100576.69;;;23.56;69.46
29825;BME280;16713;52.916;12.834;2022-08-18T10:20:56;100565.97;;;23.67;69.79
29825;BME280;16713;52.916;12.834;2022-08-18T10:34:39;100571.56;;;23.92;66.83
29825;BME280;16713;52.916;12.834;2022-08-18T10:42:26;100581.84;;;24.08;67.73
29825;BME280;16713;52.916;12.834;2022-08-18T10:45:42;100577.72;;;24.12;67.00
29825;BME280;16713;52.916;12.834;2022-08-18T10:50:25;100573.59;;;24.17;66.28
29825;BME280;16713;52.916;12.834;2022-08-18T10:53:16;100577.50;;;24.19;67.80
29825;BME280;16713;52.916;12.834;2022-08-18T10:56:48;100579.06;;;24.20;67.87
29825;BME280;16713;52.916;12.834;2022-08-18T11:01:57;100579.72;;;24.24;68.94
29825;BME280;16713;52.916;12.834;2022-08-18T11:04:35;100573.09;;;24.31;68.90
29825;BME280;16713;52.916;12.834;2022-08-18T11:07:09;100571.75;;;24.36;68.48
29825;BME280;16713;52.916;12.834;2022-08-18T11:09:36;100567.91;;;24.42;69.47
29825;BME280;16713;52.916;12.834;2022-08-18T11:12:07;100570.38;;;24.40;67.72
29825;BME280;16713;52.916;12.834;2022-08-18T11:19:46;100570.44;;;24.62;67.51
29825;BME280;16713;52.916;12.834;2022-08-18T11:22:23;100568.28;;;24.66;67.92
29825;BME280;16713;52.916;12.834;2022-08-18T11:24:58;100570.34;;;24.53;66.90
29825;BME280;16713;52.916;12.834;2022-08-18T11:27:26;100573.88;;;24.66;68.50
29825;BME280;16713;52.916;12.834;2022-08-18T11:29:53;100566.72;;;24.65;66.68
29825;BME280;16713;52.916;12.834;2022-08-18T11:39:49;100557.19;;;24.75;67.27
29825;BME280;16713;52.916;12.834;2022-08-18T11:42:18;100559.88;;;24.78;67.46
29825;BME280;16713;52.916;12.834;2022-08-18T11:44:50;100560.28;;;24.77;68.10
29825;BME280;16713;52.916;12.834;2022-08-18T11:47:19;100570.19;;;24.69;67.02
29825;BME280;16713;52.916;12.834;2022-08-18T11:49:57;100560.25;;;24.55;66.17
29825;BME280;16713;52.916;12.834;2022-08-18T11:52:29;100557.59;;;24.39;66.50
29825;BME280;16713;52.916;12.834;2022-08-18T11:55:00;100555.03;;;24.66;65.88
29825;BME280;16713;52.916;12.834;2022-08-18T11:57:49;100553.09;;;24.54;65.87
29825;BME280;16713;52.916;12.834;2022-08-18T12:06:28;100554.69;;;24.77;64.90
29825;BME280;16713;52.916;12.834;2022-08-18T12:08:49;100552.88;;;24.49;64.80
29825;BME280;16713;52.916;12.834;2022-08-18T12:11:30;100555.28;;;24.59;64.81
29825;BME280;16713;52.916;12.834;2022-08-18T12:14:08;100561.19;;;24.74;65.52
29825;BME280;16713;52.916;12.834;2022-08-18T12:16:55;100556.91;;;24.82;65.48
29825;BME280;16713;52.916;12.834;2022-08-18T12:19:21;100554.44;;;24.84;65.80
29825;BME280;16713;52.916;12.834;2022-08-18T12:21:51;100555.22;;;24.84;65.43
29825;BME280;16713;52.916;12.834;2022-08-18T12:24:29;100555.28;;;24.93;65.00
29825;BME280;16713;52.916;12.834;2022-08-18T12:27:04;100554.19;;;24.91;64.01
29825;BME280;16713;52.916;12.834;2022-08-18T12:29:46;100559.22;;;24.96;65.65
29825;BME280;16713;52.916;12.834;2022-08-18T12:32:14;100557.97;;;24.97;64.60
29825;BME280;16713;52.916;12.834;2022-08-18T12:35:02;100544.91;;;25.03;64.09
29825;BME280;16713;52.916;12.834;2022-08-18T12:37:34;100555.03;;;25.00;64.78
29825;BME280;16713;52.916;12.834;2022-08-18T12:40:22;100546.63;;;25.00;64.86
29825;BME280;16713;52.916;12.834;2022-08-18T12:42:49;100553.91;;;24.98;65.26
29825;BME280;16713;52.916;12.834;2022-08-18T12:45:16;100543.94;;;24.97;65.37
29825;BME280;16713;52.916;12.834;2022-08-18T12:47:42;100536.31;;;24.97;65.62
29825;BME280;16713;52.916;12.834;2022-08-18T12:50:09;100535.50;;;24.97;65.67
29825;BME280;16713;52.916;12.834;2022-08-18T12:52:37;100531.16;;;24.96;65.62
29825;BME280;16713;52.916;12.834;2022-08-18T12:55:04;100532.38;;;24.95;65.30
29825;BME280;16713;52.916;12.834;2022-08-18T12:57:47;100535.97;;;24.95;65.28
29825;BME280;16713;52.916;12.834;2022-08-18T13:00:33;100531.59;;;24.94;65.67
29825;BME280;16713;52.916;12.834;2022-08-18T13:03:01;100529.22;;;24.93;66.43
29825;BME280;16713;52.916;12.834;2022-08-18T13:05:27;100528.13;;;24.90;65.85
29825;BME280;16713;52.916;12.834;2022-08-18T13:07:56;100531.16;;;24.96;64.75
29825;BME280;16713;52.916;12.834;2022-08-18T13:10:23;100523.19;;;24.94;64.26
29825;BME280;16713;52.916;12.834;2022-08-18T13:13:09;100526.13;;;24.91;64.66
29825;BME280;16713;52.916;12.834;2022-08-18T13:15:35;100521.16;;;24.95;62.64
29825;BME280;16713;52.916;12.834;2022-08-18T13:18:02;100501.97;;;24.93;61.96
29825;BME280;16713;52.916;12.834;2022-08-18T13:20:29;100507.91;;;24.95;60.57
29825;BME280;16713;52.916;12.834;2022-08-18T13:22:55;100504.19;;;24.98;58.53
29825;BME280;16713;52.916;12.834;2022-08-18T13:25:22;100504.50;;;25.00;57.01
29825;BME280;16713;52.916;12.834;2022-08-18T13:28:04;100502.34;;;25.04;56.96
29825;BME280;16713;52.916;12.834;2022-08-18T13:30:31;100495.72;;;24.89;58.71
29825;BME280;16713;52.916;12.834;2022-08-18T13:32:58;100489.28;;;24.67;58.59
29825;BME280;16713;52.916;12.834;2022-08-18T13:35:45;100494.72;;;25.05;57.29
29825;BME280;16713;52.916;12.834;2022-08-18T13:38:17;100485.50;;;25.04;56.18
29825;BME280;16713;52.916;12.834;2022-08-18T13:40:51;100480.88;;;24.46;56.23
29825;BME280;16713;52.916;12.834;2022-08-18T13:43:19;100485.84;;;24.85;55.16
29825;BME280;16713;52.916;12.834;2022-08-18T13:45:48;100490.03;;;24.80;56.15
29825;BME280;16713;52.916;12.834;2022-08-18T13:48:21;100484.63;;;24.86;55.61
29825;BME280;16713;52.916;12.834;2022-08-18T13:50:49;100479.78;;;24.86;55.28
29825;BME280;16713;52.916;12.834;2022-08-18T13:53:18;100489.44;;;24.85;53.08
29825;BME280;16713;52.916;12.834;2022-08-18T13:55:46;100494.34;;;24.94;52.74
29825;BME280;16713;52.916;12.834;2022-08-18T13:58:15;100491.25;;;25.01;52.46
29825;BME280;16713;52.916;12.834;2022-08-18T14:00:46;100486.16;;;25.08;53.36
29825;BME280;16713;52.916;12.834;2022-08-18T14:03:14;100485.19;;;24.81;55.68
29825;BME280;16713;52.916;12.834;2022-08-18T14:06:01;100485.78;;;24.97;55.00
29825;BME280;16713;52.916;12.834;2022-08-18T14:08:32;100484.88;;;25.00;54.49
29825;BME280;16713;52.916;12.834;2022-08-18T14:11:00;100486.41;;;25.01;55.48
29825;BME280;16713;52.916;12.834;2022-08-18T14:13:27;100476.94;;;25.08;54.96
29825;BME280;16713;52.916;12.834;2022-08-18T14:16:03;100485.22;;;25.11;55.84
29825;BME280;16713;52.916;12.834;2022-08-18T14:18:29;100466.53;;;25.17;55.26
29825;BME280;16713;52.916;12.834;2022-08-18T14:20:56;100458.25;;;25.14;55.52
29825;BME280;16713;52.916;12.834;2022-08-18T14:23:41;100452.34;;;25.12;55.26
29825;BME280;16713;52.916;12.834;2022-08-18T14:26:35;100448.13;;;25.16;55.39
29825;BME280;16713;52.916;12.834;2022-08-18T14:29:16;100446.75;;;25.21;56.03
29825;BME280;16713;52.916;12.834;2022-08-18T14:32:02;100445.50;;;25.22;55.95
29825;BME280;16713;52.916;12.834;2022-08-18T14:34:30;100460.84;;;25.30;56.06
29825;BME280;16713;52.916;12.834;2022-08-18T14:36:57;100461.38;;;25.37;55.62
29825;BME280;16713;52.916;12.834;2022-08-18T14:39:24;100466.66;;;25.35;55.51
29825;BME280;16713;52.916;12.834;2022-08-18T14:41:51;100467.00;;;25.37;54.66
29825;BME280;16713;52.916;12.834;2022-08-18T14:44:21;100479.16;;;25.34;55.53
29825;BME280;16713;52.916;12.834;2022-08-18T14:46:49;100478.69;;;25.36;55.83
29825;BME280;16713;52.916;12.834;2022-08-18T14:49:19;100484.47;;;25.41;55.42
29825;BME280;16713;52.916;12.834;2022-08-18T14:51:54;100483.38;;;25.39;55.70
29825;BME280;16713;52.916;12.834;2022-08-18T14:54:22;100481.97;;;25.43;54.38
29825;BME280;16713;52.916;12.834;2022-08-18T14:56:53;100468.72;;;25.44;54.57
29825;BME280;16713;52.916;12.834;2022-08-18T14:59:20;100467.63;;;25.41;55.58
29825;BME280;16713;52.916;12.834;2022-08-18T15:01:48;100480.25;;;25.46;55.45
29825;BME280;16713;52.916;12.834;2022-08-18T15:04:16;100468.72;;;25.44;54.98
29825;BME280;16713;52.916;12.834;2022-08-18T15:06:44;100467.94;;;25.43;54.62
29825;BME280;16713;52.916;12.834;2022-08-18T15:09:21;100474.63;;;25.37;55.99
29825;BME280;16713;52.916;12.834;2022-08-18T15:11:49;100481.03;;;25.37;56.90
29825;BME280;16713;52.916;12.834;2022-08-18T15:14:17;100478.34;;;25.34;56.40
29825;BME280;16713;52.916;12.834;2022-08-18T15:16:44;100488.19;;;25.38;55.43
29825;BME280;16713;52.916;12.834;2022-08-18T15:19:12;100490.19;;;25.29;56.04
29825;BME280;16713;52.916;12.834;2022-08-18T15:21:58;100491.53;;;25.24;56.72
29825;BME280;16713;52.916;12.834;2022-08-18T15:24:43;100490.75;;;25.24;57.21
29825;BME280;16713;52.916;12.834;2022-08-18T15:27:32;100481.03;;;25.16;56.80
29825;BME280;16713;52.916;12.834;2022-08-18T15:30:12;100484.97;;;25.18;57.77